sensor_id;sensor_type;location;lat;lon;timestamp;P1;durP1;ratioP1;P2;durP2;ratioP2
68234;SDS011;55052;52.056;5.296;2024-02-14T00:00:45;7.65;;;5.97;;
68234;SDS011;55052;52.056;5.296;2024-02-14T00:03:12;8.88;;;6.00;;
68234;SDS011;55052;52.056;5.296;2024-02-14T00:05:39;7.65;;;5.97;;
68234;SDS011;55052;52.056;5.296;2024-02-14T00:08:07;8.77;;;5.78;;
68234;SDS011;55052;52.056;5.296;2024-02-14T00:10:34;7.13;;;5.75;;
68234;SDS011;55052;52.056;5.296;2024-02-14T00:13:01;10.00;;;6.70;;
68234;SDS011;55052;52.056;5.296;2024-02-14T00:15:28;8.95;;;6.43;;
68234;SDS011;55052;52.056;5.296;2024-02-14T00:17:55;8.57;;;5.93;;
68234;SDS011;55052;52.056;5.296;2024-02-14T00:20:22;8.40;;;6.18;;
68234;SDS011;55052;52.056;5.296;2024-02-14T00:22:51;9.20;;;6.88;;
68234;SDS011;55052;52.056;5.296;2024-02-14T00:25:18;8.98;;;6.95;;
68234;SDS011;55052;52.056;5.296;2024-02-14T00:27:46;8.23;;;6.25;;
68234;SDS011;55052;52.056;5.296;2024-02-14T00:30:13;8.90;;;6.30;;
68234;SDS011;55052;52.056;5.296;2024-02-14T00:32:40;11.15;;;6.68;;
68234;SDS011;55052;52.056;5.296;2024-02-14T00:35:07;9.13;;;6.35;;
68234;SDS011;55052;52.056;5.296;2024-02-14T00:37:34;11.80;;;7.00;;
68234;SDS011;55052;52.056;5.296;2024-02-14T00:40:01;12.43;;;7.10;;
68234;SDS011;55052;52.056;5.296;2024-02-14T00:42:28;12.30;;;7.57;;
68234;SDS011;55052;52.056;5.296;2024-02-14T00:44:55;11.55;;;7.00;;
68234;SDS011;55052;52.056;5.296;2024-02-14T00:47:22;11.95;;;7.90;;
68234;SDS011;55052;52.056;5.296;2024-02-14T00:49:49;9.73;;;7.53;;
68234;SDS011;55052;52.056;5.296;2024-02-14T00:52:15;10.68;;;7.75;;
68234;SDS011;55052;52.056;5.296;2024-02-14T00:54:43;12.75;;;8.20;;
68234;SDS011;55052;52.056;5.296;2024-02-14T00:57:10;11.07;;;7.53;;
68234;SDS011;55052;52.056;5.296;2024-02-14T00:59:38;12.80;;;8.10;;
68234;SDS011;55052;52.056;5.296;2024-02-14T01:02:05;12.77;;;8.00;;
68234;SDS011;55052;52.056;5.296;2024-02-14T01:04:32;12.75;;;8.40;;
68234;SDS011;55052;52.056;5.296;2024-02-14T01:06:58;10.63;;;8.48;;
68234;SDS011;55052;52.056;5.296;2024-02-14T01:09:25;13.80;;;8.40;;
68234;SDS011;55052;52.056;5.296;2024-02-14T01:11:52;12.73;;;7.93;;
68234;SDS011;55052;52.056;5.296;2024-02-14T01:14:19;11.23;;;7.97;;
68234;SDS011;55052;52.056;5.296;2024-02-14T01:16:48;13.15;;;8.60;;
68234;SDS011;55052;52.056;5.296;2024-02-14T01:19:14;15.65;;;8.60;;
68234;SDS011;55052;52.056;5.296;2024-02-14T01:21:42;11.93;;;8.30;;
68234;SDS011;55052;52.056;5.296;2024-02-14T01:24:08;10.82;;;7.97;;
68234;SDS011;55052;52.056;5.296;2024-02-14T01:26:35;11.15;;;8.43;;
68234;SDS011;55052;52.056;5.296;2024-02-14T01:29:02;14.52;;;9.18;;
68234;SDS011;55052;52.056;5.296;2024-02-14T01:31:31;12.27;;;8.88;;
68234;SDS011;55052;52.056;5.296;2024-02-14T01:33:58;13.70;;;8.23;;
68234;SDS011;55052;52.056;5.296;2024-02-14T01:36:25;12.23;;;8.95;;
68234;SDS011;55052;52.056;5.296;2024-02-14T01:38:52;16.60;;;9.35;;
68234;SDS011;55052;52.056;5.296;2024-02-14T01:41:19;13.43;;;9.13;;
68234;SDS011;55052;52.056;5.296;2024-02-14T01:43:47;13.50;;;9.15;;
68234;SDS011;55052;52.056;5.296;2024-02-14T01:46:14;14.50;;;10.05;;
68234;SDS011;55052;52.056;5.296;2024-02-14T01:48:41;12.98;;;9.68;;
68234;SDS011;55052;52.056;5.296;2024-02-14T01:51:11;14.15;;;9.15;;
68234;SDS011;55052;52.056;5.296;2024-02-14T01:53:39;14.37;;;9.63;;
68234;SDS011;55052;52.056;5.296;2024-02-14T01:56:06;12.38;;;9.45;;
68234;SDS011;55052;52.056;5.296;2024-02-14T01:58:33;13.48;;;10.15;;
68234;SDS011;55052;52.056;5.296;2024-02-14T02:01:01;14.45;;;10.13;;
68234;SDS011;55052;52.056;5.296;2024-02-14T02:03:29;15.10;;;10.75;;
68234;SDS011;55052;52.056;5.296;2024-02-14T02:05:59;13.27;;;10.68;;
68234;SDS011;55052;52.056;5.296;2024-02-14T02:08:26;15.13;;;11.10;;
68234;SDS011;55052;52.056;5.296;2024-02-14T02:10:53;15.48;;;11.15;;
68234;SDS011;55052;52.056;5.296;2024-02-14T02:13:20;17.75;;;11.57;;
68234;SDS011;55052;52.056;5.296;2024-02-14T02:15:47;14.57;;;11.65;;
68234;SDS011;55052;52.056;5.296;2024-02-14T02:18:14;18.42;;;11.27;;
68234;SDS011;55052;52.056;5.296;2024-02-14T02:20:41;14.13;;;11.05;;
68234;SDS011;55052;52.056;5.296;2024-02-14T02:23:11;19.60;;;12.27;;
68234;SDS011;55052;52.056;5.296;2024-02-14T02:25:41;15.80;;;11.88;;
68234;SDS011;55052;52.056;5.296;2024-02-14T02:28:09;15.50;;;12.15;;
68234;SDS011;55052;52.056;5.296;2024-02-14T02:30:36;16.65;;;11.60;;
68234;SDS011;55052;52.056;5.296;2024-02-14T02:33:04;17.98;;;11.55;;
68234;SDS011;55052;52.056;5.296;2024-02-14T02:35:32;15.27;;;12.07;;
68234;SDS011;55052;52.056;5.296;2024-02-14T02:38:00;17.13;;;12.10;;
68234;SDS011;55052;52.056;5.296;2024-02-14T02:40:27;15.75;;;11.57;;
68234;SDS011;55052;52.056;5.296;2024-02-14T02:42:54;17.23;;;12.73;;
68234;SDS011;55052;52.056;5.296;2024-02-14T02:45:21;16.63;;;12.63;;
68234;SDS011;55052;52.056;5.296;2024-02-14T02:47:48;20.52;;;12.48;;
68234;SDS011;55052;52.056;5.296;2024-02-14T02:50:18;18.63;;;11.70;;
68234;SDS011;55052;52.056;5.296;2024-02-14T02:52:46;18.13;;;12.52;;
68234;SDS011;55052;52.056;5.296;2024-02-14T02:55:13;15.60;;;11.70;;
68234;SDS011;55052;52.056;5.296;2024-02-14T02:57:44;15.95;;;12.02;;
68234;SDS011;55052;52.056;5.296;2024-02-14T03:00:12;15.73;;;11.25;;
68234;SDS011;55052;52.056;5.296;2024-02-14T03:02:40;16.50;;;11.95;;
68234;SDS011;55052;52.056;5.296;2024-02-14T03:05:11;15.00;;;9.82;;
68234;SDS011;55052;52.056;5.296;2024-02-14T03:07:44;17.60;;;11.85;;
68234;SDS011;55052;52.056;5.296;2024-02-14T03:10:12;15.30;;;12.27;;
68234;SDS011;55052;52.056;5.296;2024-02-14T03:12:40;17.52;;;11.45;;
68234;SDS011;55052;52.056;5.296;2024-02-14T03:15:07;14.80;;;11.40;;
68234;SDS011;55052;52.056;5.296;2024-02-14T03:17:36;15.95;;;12.27;;
68234;SDS011;55052;52.056;5.296;2024-02-14T03:20:04;15.85;;;11.05;;
68234;SDS011;55052;52.056;5.296;2024-02-14T03:22:43;14.13;;;10.70;;
68234;SDS011;55052;52.056;5.296;2024-02-14T03:25:12;17.10;;;11.35;;
68234;SDS011;55052;52.056;5.296;2024-02-14T03:27:46;15.40;;;11.40;;
68234;SDS011;55052;52.056;5.296;2024-02-14T03:30:16;18.15;;;11.63;;
68234;SDS011;55052;52.056;5.296;2024-02-14T03:32:44;17.38;;;11.27;;
68234;SDS011;55052;52.056;5.296;2024-02-14T03:35:12;17.52;;;11.20;;
68234;SDS011;55052;52.056;5.296;2024-02-14T03:37:43;15.48;;;11.38;;
68234;SDS011;55052;52.056;5.296;2024-02-14T03:40:14;19.13;;;11.65;;
68234;SDS011;55052;52.056;5.296;2024-02-14T03:42:41;19.15;;;12.38;;
68234;SDS011;55052;52.056;5.296;2024-02-14T03:45:08;17.98;;;11.93;;
68234;SDS011;55052;52.056;5.296;2024-02-14T03:47:36;19.90;;;11.82;;
68234;SDS011;55052;52.056;5.296;2024-02-14T03:50:06;15.63;;;11.45;;
68234;SDS011;55052;52.056;5.296;2024-02-14T03:52:34;19.02;;;13.00;;
68234;SDS011;55052;52.056;5.296;2024-02-14T03:55:01;21.70;;;12.10;;
68234;SDS011;55052;52.056;5.296;2024-02-14T03:57:29;20.52;;;12.63;;
68234;SDS011;55052;52.056;5.296;2024-02-14T03:59:56;20.17;;;11.85;;
68234;SDS011;55052;52.056;5.296;2024-02-14T04:02:28;20.65;;;11.98;;
68234;SDS011;55052;52.056;5.296;2024-02-14T04:04:55;21.35;;;13.18;;
68234;SDS011;55052;52.056;5.296;2024-02-14T04:07:21;21.58;;;12.40;;
68234;SDS011;55052;52.056;5.296;2024-02-14T04:09:48;19.90;;;11.55;;
68234;SDS011;55052;52.056;5.296;2024-02-14T04:12:15;18.55;;;11.88;;
68234;SDS011;55052;52.056;5.296;2024-02-14T04:14:42;17.75;;;12.00;;
68234;SDS011;55052;52.056;5.296;2024-02-14T04:17:09;16.75;;;11.75;;
68234;SDS011;55052;52.056;5.296;2024-02-14T04:19:37;21.65;;;11.27;;
68234;SDS011;55052;52.056;5.296;2024-02-14T04:22:05;22.88;;;11.45;;
68234;SDS011;55052;52.056;5.296;2024-02-14T04:24:35;21.83;;;12.05;;
68234;SDS011;55052;52.056;5.296;2024-02-14T04:27:02;22.10;;;11.77;;
68234;SDS011;55052;52.056;5.296;2024-02-14T04:29:31;20.42;;;12.77;;
68234;SDS011;55052;52.056;5.296;2024-02-14T04:31:59;17.85;;;11.88;;
68234;SDS011;55052;52.056;5.296;2024-02-14T04:34:26;24.63;;;12.73;;
68234;SDS011;55052;52.056;5.296;2024-02-14T04:36:54;25.52;;;12.43;;
68234;SDS011;55052;52.056;5.296;2024-02-14T04:39:21;25.33;;;11.88;;
68234;SDS011;55052;52.056;5.296;2024-02-14T04:41:47;22.10;;;12.73;;
68234;SDS011;55052;52.056;5.296;2024-02-14T04:44:26;24.05;;;13.73;;
68234;SDS011;55052;52.056;5.296;2024-02-14T04:46:54;19.77;;;12.35;;
68234;SDS011;55052;52.056;5.296;2024-02-14T04:49:22;23.52;;;13.65;;
68234;SDS011;55052;52.056;5.296;2024-02-14T04:51:49;21.13;;;13.75;;
68234;SDS011;55052;52.056;5.296;2024-02-14T04:54:15;20.75;;;13.20;;
68234;SDS011;55052;52.056;5.296;2024-02-14T04:56:42;22.90;;;13.85;;
68234;SDS011;55052;52.056;5.296;2024-02-14T04:59:10;20.45;;;14.23;;
68234;SDS011;55052;52.056;5.296;2024-02-14T05:01:36;21.90;;;13.32;;
68234;SDS011;55052;52.056;5.296;2024-02-14T05:04:04;23.48;;;13.80;;
68234;SDS011;55052;52.056;5.296;2024-02-14T05:06:31;23.48;;;13.50;;
68234;SDS011;55052;52.056;5.296;2024-02-14T05:08:58;24.60;;;14.50;;
68234;SDS011;55052;52.056;5.296;2024-02-14T05:11:25;19.58;;;13.23;;
68234;SDS011;55052;52.056;5.296;2024-02-14T05:13:51;18.77;;;14.15;;
68234;SDS011;55052;52.056;5.296;2024-02-14T05:16:21;21.60;;;14.35;;
68234;SDS011;55052;52.056;5.296;2024-02-14T05:18:49;23.17;;;13.77;;
68234;SDS011;55052;52.056;5.296;2024-02-14T05:21:19;20.83;;;13.13;;
68234;SDS011;55052;52.056;5.296;2024-02-14T05:23:47;19.75;;;13.30;;
68234;SDS011;55052;52.056;5.296;2024-02-14T05:26:15;22.75;;;13.43;;
68234;SDS011;55052;52.056;5.296;2024-02-14T05:28:41;27.83;;;13.88;;
68234;SDS011;55052;52.056;5.296;2024-02-14T05:31:08;19.10;;;13.20;;
68234;SDS011;55052;52.056;5.296;2024-02-14T05:33:35;17.63;;;13.00;;
68234;SDS011;55052;52.056;5.296;2024-02-14T05:36:02;19.30;;;12.98;;
68234;SDS011;55052;52.056;5.296;2024-02-14T05:38:29;19.80;;;12.88;;
68234;SDS011;55052;52.056;5.296;2024-02-14T05:40:56;19.08;;;13.00;;
68234;SDS011;55052;52.056;5.296;2024-02-14T05:43:23;18.05;;;12.15;;
68234;SDS011;55052;52.056;5.296;2024-02-14T05:45:50;21.13;;;13.65;;
68234;SDS011;55052;52.056;5.296;2024-02-14T05:48:17;17.05;;;13.32;;
68234;SDS011;55052;52.056;5.296;2024-02-14T05:50:45;20.58;;;12.90;;
68234;SDS011;55052;52.056;5.296;2024-02-14T05:53:12;19.55;;;13.35;;
68234;SDS011;55052;52.056;5.296;2024-02-14T05:55:39;18.33;;;13.43;;
68234;SDS011;55052;52.056;5.296;2024-02-14T05:58:05;18.02;;;12.55;;
68234;SDS011;55052;52.056;5.296;2024-02-14T06:00:32;16.23;;;12.02;;
68234;SDS011;55052;52.056;5.296;2024-02-14T06:03:02;16.95;;;12.63;;
68234;SDS011;55052;52.056;5.296;2024-02-14T06:05:31;17.92;;;12.63;;
68234;SDS011;55052;52.056;5.296;2024-02-14T06:07:58;18.23;;;12.20;;
68234;SDS011;55052;52.056;5.296;2024-02-14T06:10:25;16.98;;;12.52;;
68234;SDS011;55052;52.056;5.296;2024-02-14T06:12:52;18.33;;;12.05;;
68234;SDS011;55052;52.056;5.296;2024-02-14T06:15:19;16.30;;;11.80;;
68234;SDS011;55052;52.056;5.296;2024-02-14T06:17:46;18.67;;;12.05;;
68234;SDS011;55052;52.056;5.296;2024-02-14T06:20:14;15.40;;;11.23;;
68234;SDS011;55052;52.056;5.296;2024-02-14T06:22:41;17.00;;;11.88;;
68234;SDS011;55052;52.056;5.296;2024-02-14T06:25:19;17.73;;;11.93;;
68234;SDS011;55052;52.056;5.296;2024-02-14T06:27:45;21.00;;;12.77;;
68234;SDS011;55052;52.056;5.296;2024-02-14T06:30:13;18.10;;;12.00;;
68234;SDS011;55052;52.056;5.296;2024-02-14T06:32:40;17.73;;;12.90;;
68234;SDS011;55052;52.056;5.296;2024-02-14T06:35:07;16.85;;;11.88;;
68234;SDS011;55052;52.056;5.296;2024-02-14T06:37:34;19.75;;;13.43;;
68234;SDS011;55052;52.056;5.296;2024-02-14T06:40:14;19.83;;;11.63;;
68234;SDS011;55052;52.056;5.296;2024-02-14T06:42:41;19.15;;;12.60;;
68234;SDS011;55052;52.056;5.296;2024-02-14T06:45:07;16.90;;;12.02;;
68234;SDS011;55052;52.056;5.296;2024-02-14T06:47:35;23.92;;;13.55;;
68234;SDS011;55052;52.056;5.296;2024-02-14T06:50:02;20.40;;;13.93;;
68234;SDS011;55052;52.056;5.296;2024-02-14T06:52:29;20.38;;;13.75;;
68234;SDS011;55052;52.056;5.296;2024-02-14T06:54:55;24.13;;;13.50;;
68234;SDS011;55052;52.056;5.296;2024-02-14T06:57:22;23.80;;;14.25;;
68234;SDS011;55052;52.056;5.296;2024-02-14T06:59:49;23.40;;;14.55;;
68234;SDS011;55052;52.056;5.296;2024-02-14T07:02:16;23.40;;;14.95;;
68234;SDS011;55052;52.056;5.296;2024-02-14T07:04:43;24.92;;;15.43;;
68234;SDS011;55052;52.056;5.296;2024-02-14T07:07:09;24.23;;;15.90;;
68234;SDS011;55052;52.056;5.296;2024-02-14T07:09:37;24.05;;;15.45;;
68234;SDS011;55052;52.056;5.296;2024-02-14T07:12:05;23.27;;;15.88;;
68234;SDS011;55052;52.056;5.296;2024-02-14T07:14:32;26.42;;;16.77;;
68234;SDS011;55052;52.056;5.296;2024-02-14T07:16:59;23.25;;;16.55;;
68234;SDS011;55052;52.056;5.296;2024-02-14T07:19:25;27.95;;;17.45;;
68234;SDS011;55052;52.056;5.296;2024-02-14T07:21:52;27.60;;;16.50;;
68234;SDS011;55052;52.056;5.296;2024-02-14T07:24:19;24.30;;;16.83;;
68234;SDS011;55052;52.056;5.296;2024-02-14T07:26:46;25.77;;;16.92;;
68234;SDS011;55052;52.056;5.296;2024-02-14T07:29:13;31.98;;;16.60;;
68234;SDS011;55052;52.056;5.296;2024-02-14T07:31:40;26.23;;;16.45;;
68234;SDS011;55052;52.056;5.296;2024-02-14T07:34:07;27.83;;;16.58;;
68234;SDS011;55052;52.056;5.296;2024-02-14T07:36:35;24.40;;;16.20;;
68234;SDS011;55052;52.056;5.296;2024-02-14T07:39:02;27.35;;;16.10;;
68234;SDS011;55052;52.056;5.296;2024-02-14T07:41:29;30.00;;;16.73;;
68234;SDS011;55052;52.056;5.296;2024-02-14T07:43:57;25.17;;;15.38;;
68234;SDS011;55052;52.056;5.296;2024-02-14T07:46:24;26.58;;;15.85;;
68234;SDS011;55052;52.056;5.296;2024-02-14T07:48:53;22.58;;;15.45;;
68234;SDS011;55052;52.056;5.296;2024-02-14T07:51:20;22.50;;;15.13;;
68234;SDS011;55052;52.056;5.296;2024-02-14T07:53:48;21.77;;;13.38;;
68234;SDS011;55052;52.056;5.296;2024-02-14T07:56:16;22.85;;;15.20;;
68234;SDS011;55052;52.056;5.296;2024-02-14T07:58:44;23.88;;;14.43;;
68234;SDS011;55052;52.056;5.296;2024-02-14T08:01:12;22.95;;;14.23;;
68234;SDS011;55052;52.056;5.296;2024-02-14T08:03:40;22.33;;;15.05;;
68234;SDS011;55052;52.056;5.296;2024-02-14T08:06:07;24.95;;;14.93;;
68234;SDS011;55052;52.056;5.296;2024-02-14T08:08:34;28.05;;;13.63;;
68234;SDS011;55052;52.056;5.296;2024-02-14T08:11:01;25.92;;;15.02;;
68234;SDS011;55052;52.056;5.296;2024-02-14T08:13:28;24.00;;;13.90;;
68234;SDS011;55052;52.056;5.296;2024-02-14T08:15:55;20.58;;;14.18;;
68234;SDS011;55052;52.056;5.296;2024-02-14T08:18:22;22.20;;;14.20;;
68234;SDS011;55052;52.056;5.296;2024-02-14T08:20:49;20.63;;;14.35;;
68234;SDS011;55052;52.056;5.296;2024-02-14T08:23:16;22.45;;;15.02;;
68234;SDS011;55052;52.056;5.296;2024-02-14T08:25:43;21.02;;;14.50;;
68234;SDS011;55052;52.056;5.296;2024-02-14T08:28:10;23.65;;;14.95;;
68234;SDS011;55052;52.056;5.296;2024-02-14T08:30:37;26.92;;;14.95;;
68234;SDS011;55052;52.056;5.296;2024-02-14T08:33:04;21.95;;;15.85;;
68234;SDS011;55052;52.056;5.296;2024-02-14T08:35:31;29.88;;;16.25;;
68234;SDS011;55052;52.056;5.296;2024-02-14T08:38:04;22.48;;;15.10;;
68234;SDS011;55052;52.056;5.296;2024-02-14T08:40:32;22.55;;;15.10;;
68234;SDS011;55052;52.056;5.296;2024-02-14T08:42:59;23.20;;;14.20;;
68234;SDS011;55052;52.056;5.296;2024-02-14T08:45:26;20.38;;;13.82;;
68234;SDS011;55052;52.056;5.296;2024-02-14T08:47:56;26.48;;;15.30;;
68234;SDS011;55052;52.056;5.296;2024-02-14T08:50:23;21.40;;;14.77;;
68234;SDS011;55052;52.056;5.296;2024-02-14T08:52:49;25.65;;;14.95;;
68234;SDS011;55052;52.056;5.296;2024-02-14T08:55:16;23.98;;;14.88;;
68234;SDS011;55052;52.056;5.296;2024-02-14T08:57:45;22.33;;;15.60;;
68234;SDS011;55052;52.056;5.296;2024-02-14T09:00:14;26.73;;;16.73;;
68234;SDS011;55052;52.056;5.296;2024-02-14T09:02:46;22.00;;;16.13;;
68234;SDS011;55052;52.056;5.296;2024-02-14T09:05:13;30.20;;;17.17;;
68234;SDS011;55052;52.056;5.296;2024-02-14T09:07:40;26.38;;;16.63;;
68234;SDS011;55052;52.056;5.296;2024-02-14T09:10:08;24.45;;;16.27;;
68234;SDS011;55052;52.056;5.296;2024-02-14T09:12:36;26.30;;;17.30;;
68234;SDS011;55052;52.056;5.296;2024-02-14T09:15:04;23.70;;;16.80;;
68234;SDS011;55052;52.056;5.296;2024-02-14T09:17:31;26.55;;;16.60;;
68234;SDS011;55052;52.056;5.296;2024-02-14T09:19:58;24.02;;;16.50;;
68234;SDS011;55052;52.056;5.296;2024-02-14T09:22:27;25.23;;;16.88;;
68234;SDS011;55052;52.056;5.296;2024-02-14T09:24:55;23.50;;;16.58;;
68234;SDS011;55052;52.056;5.296;2024-02-14T09:27:23;25.38;;;17.00;;
68234;SDS011;55052;52.056;5.296;2024-02-14T09:29:50;24.50;;;16.48;;
68234;SDS011;55052;52.056;5.296;2024-02-14T09:32:17;24.17;;;16.27;;
68234;SDS011;55052;52.056;5.296;2024-02-14T09:34:43;25.60;;;16.67;;
68234;SDS011;55052;52.056;5.296;2024-02-14T09:37:12;25.65;;;16.92;;
68234;SDS011;55052;52.056;5.296;2024-02-14T09:39:39;27.65;;;17.30;;
68234;SDS011;55052;52.056;5.296;2024-02-14T09:42:08;28.08;;;18.17;;
68234;SDS011;55052;52.056;5.296;2024-02-14T09:44:39;28.17;;;18.55;;
68234;SDS011;55052;52.056;5.296;2024-02-14T09:47:07;28.27;;;17.88;;
68234;SDS011;55052;52.056;5.296;2024-02-14T09:49:35;25.88;;;17.63;;
68234;SDS011;55052;52.056;5.296;2024-02-14T09:52:03;28.30;;;17.75;;
68234;SDS011;55052;52.056;5.296;2024-02-14T09:54:32;28.90;;;18.55;;
68234;SDS011;55052;52.056;5.296;2024-02-14T09:59:28;28.58;;;17.02;;
68234;SDS011;55052;52.056;5.296;2024-02-14T10:01:56;32.63;;;17.80;;
68234;SDS011;55052;52.056;5.296;2024-02-14T10:04:23;21.75;;;17.27;;
68234;SDS011;55052;52.056;5.296;2024-02-14T10:06:52;31.23;;;17.95;;
68234;SDS011;55052;52.056;5.296;2024-02-14T10:09:22;23.58;;;16.52;;
68234;SDS011;55052;52.056;5.296;2024-02-14T10:11:49;22.73;;;15.00;;
68234;SDS011;55052;52.056;5.296;2024-02-14T10:14:16;22.58;;;15.25;;
68234;SDS011;55052;52.056;5.296;2024-02-14T10:16:43;22.85;;;15.10;;
68234;SDS011;55052;52.056;5.296;2024-02-14T10:19:15;23.23;;;14.82;;
68234;SDS011;55052;52.056;5.296;2024-02-14T10:21:43;26.38;;;14.85;;
68234;SDS011;55052;52.056;5.296;2024-02-14T10:24:23;24.20;;;14.25;;
68234;SDS011;55052;52.056;5.296;2024-02-14T10:26:54;25.30;;;15.02;;
68234;SDS011;55052;52.056;5.296;2024-02-14T10:29:24;21.52;;;14.63;;
68234;SDS011;55052;52.056;5.296;2024-02-14T10:31:52;22.55;;;14.85;;
68234;SDS011;55052;52.056;5.296;2024-02-14T10:34:19;22.85;;;14.90;;
68234;SDS011;55052;52.056;5.296;2024-02-14T10:36:52;24.63;;;15.60;;
68234;SDS011;55052;52.056;5.296;2024-02-14T10:39:22;22.73;;;14.15;;
68234;SDS011;55052;52.056;5.296;2024-02-14T10:41:52;19.07;;;13.70;;
68234;SDS011;55052;52.056;5.296;2024-02-14T10:44:20;19.17;;;14.68;;
68234;SDS011;55052;52.056;5.296;2024-02-14T10:46:47;20.52;;;14.45;;
68234;SDS011;55052;52.056;5.296;2024-02-14T10:49:18;19.27;;;13.95;;
68234;SDS011;55052;52.056;5.296;2024-02-14T10:51:47;18.83;;;14.18;;
68234;SDS011;55052;52.056;5.296;2024-02-14T10:54:16;18.63;;;14.23;;
68234;SDS011;55052;52.056;5.296;2024-02-14T10:56:47;20.23;;;15.05;;
68234;SDS011;55052;52.056;5.296;2024-02-14T10:59:19;22.98;;;14.93;;
68234;SDS011;55052;52.056;5.296;2024-02-14T11:01:47;20.90;;;14.40;;
68234;SDS011;55052;52.056;5.296;2024-02-14T11:04:15;24.20;;;14.82;;
68234;SDS011;55052;52.056;5.296;2024-02-14T11:06:49;24.02;;;15.38;;
68234;SDS011;55052;52.056;5.296;2024-02-14T11:09:31;20.35;;;14.18;;
68234;SDS011;55052;52.056;5.296;2024-02-14T11:12:02;17.00;;;13.73;;
68234;SDS011;55052;52.056;5.296;2024-02-14T11:14:32;22.60;;;15.00;;
68234;SDS011;55052;52.056;5.296;2024-02-14T11:17:08;21.92;;;14.40;;
68234;SDS011;55052;52.056;5.296;2024-02-14T11:19:36;21.55;;;13.90;;
68234;SDS011;55052;52.056;5.296;2024-02-14T11:22:10;24.95;;;13.57;;
68234;SDS011;55052;52.056;5.296;2024-02-14T11:24:39;19.30;;;12.82;;
68234;SDS011;55052;52.056;5.296;2024-02-14T11:27:12;20.05;;;11.98;;
68234;SDS011;55052;52.056;5.296;2024-02-14T11:29:59;20.52;;;12.98;;
68234;SDS011;55052;52.056;5.296;2024-02-14T11:32:27;17.90;;;12.88;;
68234;SDS011;55052;52.056;5.296;2024-02-14T11:34:55;19.15;;;13.40;;
68234;SDS011;55052;52.056;5.296;2024-02-14T11:37:29;18.60;;;13.68;;
68234;SDS011;55052;52.056;5.296;2024-02-14T11:39:57;19.95;;;13.20;;
68234;SDS011;55052;52.056;5.296;2024-02-14T11:42:24;19.00;;;13.20;;
68234;SDS011;55052;52.056;5.296;2024-02-14T11:44:52;18.58;;;12.63;;
68234;SDS011;55052;52.056;5.296;2024-02-14T11:47:22;18.65;;;13.45;;
68234;SDS011;55052;52.056;5.296;2024-02-14T11:49:49;21.00;;;13.02;;
68234;SDS011;55052;52.056;5.296;2024-02-14T11:52:17;20.83;;;13.23;;
68234;SDS011;55052;52.056;5.296;2024-02-14T11:54:48;22.02;;;13.68;;
68234;SDS011;55052;52.056;5.296;2024-02-14T11:57:18;20.02;;;13.38;;
68234;SDS011;55052;52.056;5.296;2024-02-14T12:02:16;19.27;;;12.40;;
68234;SDS011;55052;52.056;5.296;2024-02-14T12:04:46;17.52;;;12.65;;
68234;SDS011;55052;52.056;5.296;2024-02-14T12:07:14;19.95;;;13.15;;
68234;SDS011;55052;52.056;5.296;2024-02-14T12:09:41;19.60;;;13.13;;
68234;SDS011;55052;52.056;5.296;2024-02-14T12:12:09;21.40;;;12.88;;
68234;SDS011;55052;52.056;5.296;2024-02-14T12:14:36;18.00;;;11.68;;
68234;SDS011;55052;52.056;5.296;2024-02-14T12:17:03;16.48;;;12.68;;
68234;SDS011;55052;52.056;5.296;2024-02-14T12:19:33;16.70;;;11.65;;
68234;SDS011;55052;52.056;5.296;2024-02-14T12:22:01;16.13;;;11.23;;
68234;SDS011;55052;52.056;5.296;2024-02-14T12:24:28;17.55;;;11.98;;
68234;SDS011;55052;52.056;5.296;2024-02-14T12:26:55;19.48;;;12.60;;
68234;SDS011;55052;52.056;5.296;2024-02-14T12:29:23;15.73;;;11.88;;
68234;SDS011;55052;52.056;5.296;2024-02-14T12:31:51;17.55;;;12.05;;
68234;SDS011;55052;52.056;5.296;2024-02-14T12:34:18;18.73;;;11.30;;
68234;SDS011;55052;52.056;5.296;2024-02-14T12:36:50;15.95;;;11.48;;
68234;SDS011;55052;52.056;5.296;2024-02-14T12:39:17;16.88;;;11.43;;
68234;SDS011;55052;52.056;5.296;2024-02-14T12:41:45;16.52;;;11.00;;
68234;SDS011;55052;52.056;5.296;2024-02-14T12:44:11;14.43;;;9.93;;
68234;SDS011;55052;52.056;5.296;2024-02-14T12:46:38;14.95;;;10.00;;
68234;SDS011;55052;52.056;5.296;2024-02-14T12:49:05;13.23;;;8.60;;
68234;SDS011;55052;52.056;5.296;2024-02-14T12:51:33;13.07;;;8.57;;
68234;SDS011;55052;52.056;5.296;2024-02-14T12:54:04;13.15;;;8.50;;
68234;SDS011;55052;52.056;5.296;2024-02-14T12:56:31;11.90;;;8.43;;
68234;SDS011;55052;52.056;5.296;2024-02-14T12:58:58;13.68;;;8.63;;
68234;SDS011;55052;52.056;5.296;2024-02-14T13:01:26;11.65;;;8.25;;
68234;SDS011;55052;52.056;5.296;2024-02-14T13:03:53;13.73;;;7.53;;
68234;SDS011;55052;52.056;5.296;2024-02-14T13:06:20;10.75;;;7.88;;
68234;SDS011;55052;52.056;5.296;2024-02-14T13:08:47;11.68;;;7.43;;
68234;SDS011;55052;52.056;5.296;2024-02-14T13:11:14;11.25;;;7.40;;
68234;SDS011;55052;52.056;5.296;2024-02-14T13:13:42;13.93;;;7.18;;
68234;SDS011;55052;52.056;5.296;2024-02-14T13:16:10;9.20;;;7.05;;
68234;SDS011;55052;52.056;5.296;2024-02-14T13:18:37;9.35;;;6.43;;
68234;SDS011;55052;52.056;5.296;2024-02-14T13:21:05;9.60;;;6.68;;
68234;SDS011;55052;52.056;5.296;2024-02-14T13:23:32;10.30;;;6.82;;
68234;SDS011;55052;52.056;5.296;2024-02-14T13:25:59;13.88;;;7.28;;
68234;SDS011;55052;52.056;5.296;2024-02-14T13:28:25;13.13;;;7.43;;
68234;SDS011;55052;52.056;5.296;2024-02-14T13:30:52;10.18;;;6.63;;
68234;SDS011;55052;52.056;5.296;2024-02-14T13:33:22;10.90;;;6.95;;
68234;SDS011;55052;52.056;5.296;2024-02-14T13:35:49;9.35;;;6.93;;
68234;SDS011;55052;52.056;5.296;2024-02-14T13:38:16;12.00;;;7.75;;
68234;SDS011;55052;52.056;5.296;2024-02-14T13:40:43;10.25;;;7.63;;
68234;SDS011;55052;52.056;5.296;2024-02-14T13:43:10;10.10;;;7.88;;
68234;SDS011;55052;52.056;5.296;2024-02-14T13:45:41;11.73;;;7.90;;
68234;SDS011;55052;52.056;5.296;2024-02-14T13:48:10;10.63;;;8.32;;
68234;SDS011;55052;52.056;5.296;2024-02-14T13:50:38;12.57;;;8.75;;
68234;SDS011;55052;52.056;5.296;2024-02-14T13:53:06;11.98;;;9.32;;
68234;SDS011;55052;52.056;5.296;2024-02-14T13:55:33;12.73;;;9.05;;
68234;SDS011;55052;52.056;5.296;2024-02-14T13:58:00;16.15;;;9.65;;
68234;SDS011;55052;52.056;5.296;2024-02-14T14:00:27;13.38;;;9.68;;
68234;SDS011;55052;52.056;5.296;2024-02-14T14:02:54;14.27;;;9.82;;
68234;SDS011;55052;52.056;5.296;2024-02-14T14:05:21;11.27;;;9.38;;
68234;SDS011;55052;52.056;5.296;2024-02-14T14:07:48;12.88;;;9.65;;
68234;SDS011;55052;52.056;5.296;2024-02-14T14:10:24;11.68;;;9.60;;
68234;SDS011;55052;52.056;5.296;2024-02-14T14:12:53;15.32;;;10.25;;
68234;SDS011;55052;52.056;5.296;2024-02-14T14:15:20;15.48;;;10.40;;
68234;SDS011;55052;52.056;5.296;2024-02-14T14:17:49;13.60;;;9.77;;
68234;SDS011;55052;52.056;5.296;2024-02-14T14:20:16;13.15;;;9.68;;
68234;SDS011;55052;52.056;5.296;2024-02-14T14:22:45;13.68;;;10.25;;
68234;SDS011;55052;52.056;5.296;2024-02-14T14:25:12;15.43;;;9.88;;
68234;SDS011;55052;52.056;5.296;2024-02-14T14:27:39;14.80;;;9.55;;
68234;SDS011;55052;52.056;5.296;2024-02-14T14:30:06;12.45;;;9.20;;
68234;SDS011;55052;52.056;5.296;2024-02-14T14:32:33;11.45;;;8.15;;
68234;SDS011;55052;52.056;5.296;2024-02-14T14:35:00;14.15;;;9.07;;